VEJS/IXW METAR and TAF weather

Enter ICAO airport designator
Station Type Date Time Source
VEJS METAR 2019/06/27 10:00 UTC NOAA

VEJS 271000Z 27010KT 5000 HZ SCT020 BKN100 35/25 Q0997


Station Type Date Time Source
VEJS Decoded METAR 2019/06/27 10:00 UTC NOAA

Jamshedpur, India (VEJS) 22-49N 086-11E 142M
Jun 27, 2019 - 06:00 AM EDT / 2019.06.27 1000 UTC
Wind: from the W (270 degrees) at 12 MPH (10 KT):0
Visibility: 3 mile(s):0
Sky conditions: mostly cloudy
Weather: haze
Temperature: 95 F (35 C)
Heat index: 109.8 F (43.2 C):1
Dew Point: 77 F (25 C)
Relative Humidity: 56%
Pressure (altimeter): 29.44 in. Hg (0997 hPa)
ob: VEJS 271000Z 27010KT 5000 HZ SCT020 BKN100 35/25 Q0997
cycle: 10

Station Type Date Time Source
VEJS TAF 2009/11/01 09:00 UTC NOAA

TAF VEJS 010900Z 0112/0121 36004KT 2500 HZ FEW020 SCT025 SCT100
BECMG 0116/0118 00000KT 2000 HZ FEW018 SCT
BECMG 0119/0121 00000KT 1600 BR

Example: see airport list